sensor_id;sensor_type;location;lat;lon;timestamp;P1;durP1;ratioP1;P2;durP2;ratioP2
51746;SDS011;37825;40.088;18.302;2022-07-06T00:02:07;9.82;;;8.75;;
51746;SDS011;37825;40.088;18.302;2022-07-06T00:04:36;9.02;;;8.13;;
51746;SDS011;37825;40.088;18.302;2022-07-06T00:07:04;11.10;;;9.30;;
51746;SDS011;37825;40.088;18.302;2022-07-06T00:09:33;11.10;;;8.63;;
51746;SDS011;37825;40.088;18.302;2022-07-06T00:12:01;16.13;;;14.50;;
51746;SDS011;37825;40.088;18.302;2022-07-06T00:14:31;14.20;;;12.90;;
51746;SDS011;37825;40.088;18.302;2022-07-06T00:16:59;15.68;;;10.93;;
51746;SDS011;37825;40.088;18.302;2022-07-06T00:19:27;13.30;;;10.65;;
51746;SDS011;37825;40.088;18.302;2022-07-06T00:21:55;16.17;;;12.70;;
51746;SDS011;37825;40.088;18.302;2022-07-06T00:24:25;13.35;;;11.93;;
51746;SDS011;37825;40.088;18.302;2022-07-06T00:26:53;12.43;;;10.75;;
51746;SDS011;37825;40.088;18.302;2022-07-06T00:29:21;10.82;;;9.73;;
51746;SDS011;37825;40.088;18.302;2022-07-06T00:31:50;10.52;;;9.43;;
51746;SDS011;37825;40.088;18.302;2022-07-06T00:34:18;17.85;;;16.30;;
51746;SDS011;37825;40.088;18.302;2022-07-06T00:36:47;15.27;;;13.52;;
51746;SDS011;37825;40.088;18.302;2022-07-06T00:39:16;10.98;;;9.77;;
51746;SDS011;37825;40.088;18.302;2022-07-06T00:41:46;8.57;;;7.75;;
51746;SDS011;37825;40.088;18.302;2022-07-06T00:44:15;15.35;;;9.82;;
51746;SDS011;37825;40.088;18.302;2022-07-06T00:46:43;11.07;;;9.13;;
51746;SDS011;37825;40.088;18.302;2022-07-06T00:49:12;12.77;;;9.25;;
51746;SDS011;37825;40.088;18.302;2022-07-06T00:52:06;9.30;;;8.00;;
51746;SDS011;37825;40.088;18.302;2022-07-06T00:54:35;10.02;;;8.40;;
51746;SDS011;37825;40.088;18.302;2022-07-06T00:57:04;9.80;;;7.93;;
51746;SDS011;37825;40.088;18.302;2022-07-06T00:59:33;9.68;;;7.75;;
51746;SDS011;37825;40.088;18.302;2022-07-06T01:02:01;11.13;;;7.40;;
51746;SDS011;37825;40.088;18.302;2022-07-06T01:04:30;8.77;;;7.57;;
51746;SDS011;37825;40.088;18.302;2022-07-06T01:06:58;6.05;;;5.47;;
51746;SDS011;37825;40.088;18.302;2022-07-06T01:09:27;5.60;;;4.93;;
51746;SDS011;37825;40.088;18.302;2022-07-06T01:11:56;6.60;;;4.70;;
51746;SDS011;37825;40.088;18.302;2022-07-06T01:14:24;6.75;;;5.03;;
51746;SDS011;37825;40.088;18.302;2022-07-06T01:16:53;6.47;;;5.10;;
51746;SDS011;37825;40.088;18.302;2022-07-06T01:19:22;5.88;;;4.72;;
51746;SDS011;37825;40.088;18.302;2022-07-06T01:21:51;5.80;;;4.80;;
51746;SDS011;37825;40.088;18.302;2022-07-06T01:24:19;7.53;;;5.18;;
51746;SDS011;37825;40.088;18.302;2022-07-06T01:26:48;9.27;;;4.75;;
51746;SDS011;37825;40.088;18.302;2022-07-06T01:29:17;6.32;;;4.97;;
51746;SDS011;37825;40.088;18.302;2022-07-06T01:31:47;6.97;;;5.38;;
51746;SDS011;37825;40.088;18.302;2022-07-06T01:34:16;8.85;;;5.70;;
51746;SDS011;37825;40.088;18.302;2022-07-06T01:36:45;8.98;;;6.07;;
51746;SDS011;37825;40.088;18.302;2022-07-06T01:39:14;5.70;;;5.05;;
51746;SDS011;37825;40.088;18.302;2022-07-06T01:41:43;8.43;;;5.60;;
51746;SDS011;37825;40.088;18.302;2022-07-06T01:44:11;8.25;;;5.35;;
51746;SDS011;37825;40.088;18.302;2022-07-06T01:46:40;10.07;;;8.43;;
51746;SDS011;37825;40.088;18.302;2022-07-06T01:49:09;11.68;;;10.68;;
51746;SDS011;37825;40.088;18.302;2022-07-06T01:51:37;15.10;;;13.57;;
51746;SDS011;37825;40.088;18.302;2022-07-06T01:54:05;7.18;;;6.47;;
51746;SDS011;37825;40.088;18.302;2022-07-06T01:56:33;6.40;;;5.13;;
51746;SDS011;37825;40.088;18.302;2022-07-06T01:59:04;11.10;;;5.20;;
51746;SDS011;37825;40.088;18.302;2022-07-06T02:01:32;12.57;;;9.65;;
51746;SDS011;37825;40.088;18.302;2022-07-06T02:04:01;29.85;;;26.77;;
51746;SDS011;37825;40.088;18.302;2022-07-06T02:06:30;20.38;;;16.70;;
51746;SDS011;37825;40.088;18.302;2022-07-06T02:08:58;19.77;;;17.70;;
51746;SDS011;37825;40.088;18.302;2022-07-06T02:11:26;10.32;;;8.98;;
51746;SDS011;37825;40.088;18.302;2022-07-06T02:13:55;7.55;;;5.13;;
51746;SDS011;37825;40.088;18.302;2022-07-06T02:16:23;11.88;;;5.93;;
51746;SDS011;37825;40.088;18.302;2022-07-06T02:18:52;9.20;;;5.72;;
51746;SDS011;37825;40.088;18.302;2022-07-06T02:21:21;5.97;;;4.70;;
51746;SDS011;37825;40.088;18.302;2022-07-06T02:23:49;7.40;;;4.93;;
51746;SDS011;37825;40.088;18.302;2022-07-06T02:26:18;8.63;;;5.40;;
51746;SDS011;37825;40.088;18.302;2022-07-06T02:28:47;8.60;;;5.20;;
51746;SDS011;37825;40.088;18.302;2022-07-06T02:31:17;8.73;;;5.72;;
51746;SDS011;37825;40.088;18.302;2022-07-06T02:33:47;17.45;;;10.63;;
51746;SDS011;37825;40.088;18.302;2022-07-06T02:36:15;13.30;;;9.35;;
51746;SDS011;37825;40.088;18.302;2022-07-06T02:38:43;13.75;;;8.68;;
51746;SDS011;37825;40.088;18.302;2022-07-06T02:41:12;14.18;;;8.75;;
51746;SDS011;37825;40.088;18.302;2022-07-06T02:43:41;12.30;;;11.00;;
51746;SDS011;37825;40.088;18.302;2022-07-06T02:46:09;21.50;;;19.73;;
51746;SDS011;37825;40.088;18.302;2022-07-06T02:48:39;19.88;;;17.83;;
51746;SDS011;37825;40.088;18.302;2022-07-06T02:51:07;10.98;;;9.88;;
51746;SDS011;37825;40.088;18.302;2022-07-06T02:53:37;7.47;;;6.03;;
51746;SDS011;37825;40.088;18.302;2022-07-06T02:56:06;11.23;;;8.52;;
51746;SDS011;37825;40.088;18.302;2022-07-06T02:58:35;9.85;;;7.35;;
51746;SDS011;37825;40.088;18.302;2022-07-06T03:01:03;12.48;;;7.95;;
51746;SDS011;37825;40.088;18.302;2022-07-06T03:03:33;9.10;;;6.45;;
51746;SDS011;37825;40.088;18.302;2022-07-06T03:06:02;12.45;;;8.02;;
51746;SDS011;37825;40.088;18.302;2022-07-06T03:08:32;10.07;;;7.22;;
51746;SDS011;37825;40.088;18.302;2022-07-06T03:11:02;8.65;;;7.35;;
51746;SDS011;37825;40.088;18.302;2022-07-06T03:13:30;13.80;;;9.18;;
51746;SDS011;37825;40.088;18.302;2022-07-06T03:15:59;10.55;;;7.97;;
51746;SDS011;37825;40.088;18.302;2022-07-06T03:18:30;10.57;;;8.38;;
51746;SDS011;37825;40.088;18.302;2022-07-06T03:20:58;15.75;;;7.90;;
51746;SDS011;37825;40.088;18.302;2022-07-06T03:23:31;12.82;;;7.53;;
51746;SDS011;37825;40.088;18.302;2022-07-06T03:25:59;10.70;;;6.40;;
51746;SDS011;37825;40.088;18.302;2022-07-06T03:28:30;11.82;;;8.85;;
51746;SDS011;37825;40.088;18.302;2022-07-06T03:30:58;15.95;;;8.90;;
51746;SDS011;37825;40.088;18.302;2022-07-06T03:33:27;10.73;;;8.63;;
51746;SDS011;37825;40.088;18.302;2022-07-06T03:35:56;10.38;;;8.88;;
51746;SDS011;37825;40.088;18.302;2022-07-06T03:38:24;10.27;;;7.18;;
51746;SDS011;37825;40.088;18.302;2022-07-06T03:40:53;15.10;;;8.40;;
51746;SDS011;37825;40.088;18.302;2022-07-06T03:43:21;16.30;;;7.82;;
51746;SDS011;37825;40.088;18.302;2022-07-06T03:45:51;16.35;;;8.27;;
51746;SDS011;37825;40.088;18.302;2022-07-06T03:48:19;11.93;;;6.07;;
51746;SDS011;37825;40.088;18.302;2022-07-06T03:50:48;12.80;;;6.07;;
51746;SDS011;37825;40.088;18.302;2022-07-06T03:53:17;17.33;;;5.75;;
51746;SDS011;37825;40.088;18.302;2022-07-06T03:55:45;9.88;;;6.03;;
51746;SDS011;37825;40.088;18.302;2022-07-06T03:58:35;12.13;;;7.20;;
51746;SDS011;37825;40.088;18.302;2022-07-06T04:01:04;12.00;;;5.28;;
51746;SDS011;37825;40.088;18.302;2022-07-06T04:03:33;15.38;;;6.55;;
51746;SDS011;37825;40.088;18.302;2022-07-06T04:06:02;18.48;;;10.82;;
51746;SDS011;37825;40.088;18.302;2022-07-06T04:08:32;9.15;;;7.22;;
51746;SDS011;37825;40.088;18.302;2022-07-06T04:11:01;17.63;;;11.05;;
51746;SDS011;37825;40.088;18.302;2022-07-06T04:13:30;19.00;;;8.15;;
51746;SDS011;37825;40.088;18.302;2022-07-06T04:15:59;11.30;;;6.13;;
51746;SDS011;37825;40.088;18.302;2022-07-06T04:18:29;11.23;;;6.35;;
51746;SDS011;37825;40.088;18.302;2022-07-06T04:20:58;18.10;;;9.43;;
51746;SDS011;37825;40.088;18.302;2022-07-06T04:23:28;9.05;;;5.78;;
51746;SDS011;37825;40.088;18.302;2022-07-06T04:25:57;11.48;;;6.35;;
51746;SDS011;37825;40.088;18.302;2022-07-06T04:28:27;15.95;;;6.95;;
51746;SDS011;37825;40.088;18.302;2022-07-06T04:30:56;13.38;;;5.78;;
51746;SDS011;37825;40.088;18.302;2022-07-06T04:33:25;12.48;;;4.22;;
51746;SDS011;37825;40.088;18.302;2022-07-06T04:35:54;12.68;;;4.53;;
51746;SDS011;37825;40.088;18.302;2022-07-06T04:38:27;14.48;;;3.70;;
51746;SDS011;37825;40.088;18.302;2022-07-06T04:41:01;15.40;;;5.18;;
51746;SDS011;37825;40.088;18.302;2022-07-06T04:43:30;9.70;;;3.60;;
51746;SDS011;37825;40.088;18.302;2022-07-06T04:45:58;7.63;;;3.55;;
51746;SDS011;37825;40.088;18.302;2022-07-06T04:48:29;13.75;;;3.90;;
51746;SDS011;37825;40.088;18.302;2022-07-06T04:50:59;15.02;;;4.13;;
51746;SDS011;37825;40.088;18.302;2022-07-06T04:53:28;8.98;;;2.92;;
51746;SDS011;37825;40.088;18.302;2022-07-06T04:55:58;9.82;;;3.00;;
51746;SDS011;37825;40.088;18.302;2022-07-06T04:58:29;11.00;;;3.25;;
51746;SDS011;37825;40.088;18.302;2022-07-06T05:00:58;9.63;;;3.35;;
51746;SDS011;37825;40.088;18.302;2022-07-06T05:03:27;7.53;;;2.40;;
51746;SDS011;37825;40.088;18.302;2022-07-06T05:05:55;9.32;;;2.47;;
51746;SDS011;37825;40.088;18.302;2022-07-06T05:08:24;10.43;;;2.92;;
51746;SDS011;37825;40.088;18.302;2022-07-06T05:10:53;8.27;;;1.77;;
51746;SDS011;37825;40.088;18.302;2022-07-06T05:13:22;8.00;;;2.38;;
51746;SDS011;37825;40.088;18.302;2022-07-06T05:15:51;10.57;;;2.38;;
51746;SDS011;37825;40.088;18.302;2022-07-06T05:18:19;11.18;;;2.97;;
51746;SDS011;37825;40.088;18.302;2022-07-06T05:20:48;6.25;;;1.38;;
51746;SDS011;37825;40.088;18.302;2022-07-06T05:23:18;6.40;;;2.60;;
51746;SDS011;37825;40.088;18.302;2022-07-06T05:25:47;9.30;;;1.98;;
51746;SDS011;37825;40.088;18.302;2022-07-06T05:28:15;13.60;;;2.85;;
51746;SDS011;37825;40.088;18.302;2022-07-06T05:30:44;17.08;;;3.65;;
51746;SDS011;37825;40.088;18.302;2022-07-06T05:33:13;7.65;;;2.63;;
51746;SDS011;37825;40.088;18.302;2022-07-06T05:35:42;13.13;;;2.60;;
51746;SDS011;37825;40.088;18.302;2022-07-06T05:40:50;4.93;;;1.95;;
51746;SDS011;37825;40.088;18.302;2022-07-06T05:43:19;9.80;;;2.75;;
51746;SDS011;37825;40.088;18.302;2022-07-06T05:45:48;3.95;;;1.48;;
51746;SDS011;37825;40.088;18.302;2022-07-06T05:48:19;8.35;;;2.30;;
51746;SDS011;37825;40.088;18.302;2022-07-06T05:51:05;4.63;;;1.85;;
51746;SDS011;37825;40.088;18.302;2022-07-06T05:53:34;7.25;;;2.03;;
51746;SDS011;37825;40.088;18.302;2022-07-06T05:56:03;5.78;;;1.98;;
51746;SDS011;37825;40.088;18.302;2022-07-06T05:58:33;8.63;;;2.33;;
51746;SDS011;37825;40.088;18.302;2022-07-06T06:01:03;12.87;;;3.17;;
51746;SDS011;37825;40.088;18.302;2022-07-06T06:03:34;6.90;;;2.00;;
51746;SDS011;37825;40.088;18.302;2022-07-06T06:06:04;12.27;;;2.95;;
51746;SDS011;37825;40.088;18.302;2022-07-06T06:08:33;7.20;;;2.88;;
51746;SDS011;37825;40.088;18.302;2022-07-06T06:11:01;7.68;;;2.08;;
51746;SDS011;37825;40.088;18.302;2022-07-06T06:13:31;7.47;;;2.03;;
51746;SDS011;37825;40.088;18.302;2022-07-06T06:16:00;8.95;;;2.00;;
51746;SDS011;37825;40.088;18.302;2022-07-06T06:18:29;9.50;;;2.58;;
51746;SDS011;37825;40.088;18.302;2022-07-06T06:20:58;6.57;;;2.28;;
51746;SDS011;37825;40.088;18.302;2022-07-06T06:23:27;12.43;;;2.90;;
51746;SDS011;37825;40.088;18.302;2022-07-06T06:25:55;8.18;;;2.20;;
51746;SDS011;37825;40.088;18.302;2022-07-06T06:28:23;7.50;;;2.22;;
51746;SDS011;37825;40.088;18.302;2022-07-06T06:30:52;5.07;;;1.80;;
51746;SDS011;37825;40.088;18.302;2022-07-06T06:33:20;9.18;;;2.55;;
51746;SDS011;37825;40.088;18.302;2022-07-06T06:35:52;5.90;;;2.15;;
51746;SDS011;37825;40.088;18.302;2022-07-06T06:38:21;12.23;;;2.20;;
51746;SDS011;37825;40.088;18.302;2022-07-06T06:40:53;4.22;;;1.60;;
51746;SDS011;37825;40.088;18.302;2022-07-06T06:43:22;9.43;;;2.13;;
51746;SDS011;37825;40.088;18.302;2022-07-06T06:46:05;7.60;;;3.00;;
51746;SDS011;37825;40.088;18.302;2022-07-06T06:48:34;5.68;;;2.25;;
51746;SDS011;37825;40.088;18.302;2022-07-06T06:51:03;12.05;;;3.72;;
51746;SDS011;37825;40.088;18.302;2022-07-06T06:53:31;6.45;;;2.40;;
51746;SDS011;37825;40.088;18.302;2022-07-06T06:56:03;8.73;;;2.83;;
51746;SDS011;37825;40.088;18.302;2022-07-06T06:58:31;5.82;;;1.75;;
51746;SDS011;37825;40.088;18.302;2022-07-06T07:01:11;6.28;;;2.42;;
51746;SDS011;37825;40.088;18.302;2022-07-06T07:03:39;7.53;;;2.95;;
51746;SDS011;37825;40.088;18.302;2022-07-06T07:06:08;13.43;;;2.88;;
51746;SDS011;37825;40.088;18.302;2022-07-06T07:08:36;8.95;;;2.88;;
51746;SDS011;37825;40.088;18.302;2022-07-06T07:11:05;10.45;;;3.00;;
51746;SDS011;37825;40.088;18.302;2022-07-06T07:13:33;5.13;;;2.22;;
51746;SDS011;37825;40.088;18.302;2022-07-06T07:16:01;12.43;;;3.90;;
51746;SDS011;37825;40.088;18.302;2022-07-06T07:18:30;9.88;;;3.00;;
51746;SDS011;37825;40.088;18.302;2022-07-06T07:20:59;10.75;;;2.67;;
51746;SDS011;37825;40.088;18.302;2022-07-06T07:23:27;7.75;;;3.50;;
51746;SDS011;37825;40.088;18.302;2022-07-06T07:25:55;7.25;;;2.70;;
51746;SDS011;37825;40.088;18.302;2022-07-06T07:28:24;11.05;;;3.67;;
51746;SDS011;37825;40.088;18.302;2022-07-06T07:30:52;7.85;;;2.92;;
51746;SDS011;37825;40.088;18.302;2022-07-06T07:33:21;8.75;;;3.28;;
51746;SDS011;37825;40.088;18.302;2022-07-06T07:35:50;9.23;;;3.17;;
51746;SDS011;37825;40.088;18.302;2022-07-06T07:38:18;8.60;;;4.15;;
51746;SDS011;37825;40.088;18.302;2022-07-06T07:40:47;9.00;;;3.22;;
51746;SDS011;37825;40.088;18.302;2022-07-06T07:43:16;5.80;;;2.53;;
51746;SDS011;37825;40.088;18.302;2022-07-06T07:45:45;6.55;;;3.20;;
51746;SDS011;37825;40.088;18.302;2022-07-06T07:48:21;5.18;;;2.22;;
51746;SDS011;37825;40.088;18.302;2022-07-06T07:50:50;7.53;;;2.85;;
51746;SDS011;37825;40.088;18.302;2022-07-06T07:53:18;9.85;;;2.90;;
51746;SDS011;37825;40.088;18.302;2022-07-06T07:55:46;6.68;;;1.98;;
51746;SDS011;37825;40.088;18.302;2022-07-06T07:58:15;9.68;;;3.70;;
51746;SDS011;37825;40.088;18.302;2022-07-06T08:00:43;11.55;;;3.53;;
51746;SDS011;37825;40.088;18.302;2022-07-06T08:03:12;6.07;;;2.22;;
51746;SDS011;37825;40.088;18.302;2022-07-06T08:05:40;4.97;;;2.67;;
51746;SDS011;37825;40.088;18.302;2022-07-06T08:08:09;10.90;;;3.75;;
51746;SDS011;37825;40.088;18.302;2022-07-06T08:10:37;8.45;;;2.78;;
51746;SDS011;37825;40.088;18.302;2022-07-06T08:13:18;9.70;;;4.00;;
51746;SDS011;37825;40.088;18.302;2022-07-06T08:15:47;8.50;;;3.05;;
51746;SDS011;37825;40.088;18.302;2022-07-06T08:18:15;9.45;;;3.10;;
51746;SDS011;37825;40.088;18.302;2022-07-06T08:20:44;9.82;;;3.42;;
51746;SDS011;37825;40.088;18.302;2022-07-06T08:23:18;8.88;;;3.67;;
51746;SDS011;37825;40.088;18.302;2022-07-06T08:25:46;10.23;;;4.03;;
51746;SDS011;37825;40.088;18.302;2022-07-06T08:28:15;7.22;;;3.28;;
51746;SDS011;37825;40.088;18.302;2022-07-06T08:30:43;7.45;;;3.13;;
51746;SDS011;37825;40.088;18.302;2022-07-06T08:33:11;8.23;;;3.53;;
51746;SDS011;37825;40.088;18.302;2022-07-06T08:35:40;5.15;;;2.03;;
51746;SDS011;37825;40.088;18.302;2022-07-06T08:38:09;6.68;;;2.45;;
51746;SDS011;37825;40.088;18.302;2022-07-06T08:40:38;6.78;;;2.83;;
51746;SDS011;37825;40.088;18.302;2022-07-06T08:43:06;11.05;;;3.67;;
51746;SDS011;37825;40.088;18.302;2022-07-06T08:45:34;7.15;;;2.60;;
51746;SDS011;37825;40.088;18.302;2022-07-06T08:48:04;38.22;;;31.98;;
51746;SDS011;37825;40.088;18.302;2022-07-06T08:50:35;5.70;;;3.92;;
51746;SDS011;37825;40.088;18.302;2022-07-06T08:53:04;6.93;;;3.53;;
51746;SDS011;37825;40.088;18.302;2022-07-06T08:55:32;7.43;;;3.10;;
51746;SDS011;37825;40.088;18.302;2022-07-06T08:58:01;7.25;;;2.58;;
51746;SDS011;37825;40.088;18.302;2022-07-06T09:03:01;7.32;;;4.10;;
51746;SDS011;37825;40.088;18.302;2022-07-06T09:05:29;7.75;;;3.42;;
51746;SDS011;37825;40.088;18.302;2022-07-06T09:07:59;3.80;;;1.98;;
51746;SDS011;37825;40.088;18.302;2022-07-06T09:10:28;5.80;;;2.95;;
51746;SDS011;37825;40.088;18.302;2022-07-06T09:13:07;12.27;;;2.80;;
51746;SDS011;37825;40.088;18.302;2022-07-06T09:15:37;11.52;;;4.07;;
51746;SDS011;37825;40.088;18.302;2022-07-06T09:18:08;8.15;;;3.30;;
51746;SDS011;37825;40.088;18.302;2022-07-06T09:20:37;6.28;;;3.28;;
51746;SDS011;37825;40.088;18.302;2022-07-06T09:23:06;3.88;;;2.60;;
51746;SDS011;37825;40.088;18.302;2022-07-06T09:25:37;10.48;;;4.15;;
51746;SDS011;37825;40.088;18.302;2022-07-06T09:28:05;8.88;;;3.53;;
51746;SDS011;37825;40.088;18.302;2022-07-06T09:30:34;6.22;;;2.58;;
51746;SDS011;37825;40.088;18.302;2022-07-06T09:33:07;12.38;;;2.95;;
51746;SDS011;37825;40.088;18.302;2022-07-06T09:35:38;6.65;;;3.00;;
51746;SDS011;37825;40.088;18.302;2022-07-06T09:38:13;8.50;;;2.95;;
51746;SDS011;37825;40.088;18.302;2022-07-06T09:40:42;15.57;;;4.22;;
51746;SDS011;37825;40.088;18.302;2022-07-06T09:45:44;5.38;;;2.60;;
51746;SDS011;37825;40.088;18.302;2022-07-06T09:48:13;5.65;;;2.40;;
51746;SDS011;37825;40.088;18.302;2022-07-06T09:50:43;8.13;;;3.30;;
51746;SDS011;37825;40.088;18.302;2022-07-06T09:53:11;6.63;;;2.67;;
51746;SDS011;37825;40.088;18.302;2022-07-06T09:55:44;3.67;;;2.50;;
51746;SDS011;37825;40.088;18.302;2022-07-06T09:58:14;4.97;;;2.97;;
51746;SDS011;37825;40.088;18.302;2022-07-06T10:00:44;4.93;;;2.13;;
51746;SDS011;37825;40.088;18.302;2022-07-06T10:03:13;6.07;;;2.13;;
51746;SDS011;37825;40.088;18.302;2022-07-06T10:05:43;6.03;;;2.50;;
51746;SDS011;37825;40.088;18.302;2022-07-06T10:08:14;6.65;;;2.72;;
51746;SDS011;37825;40.088;18.302;2022-07-06T10:10:43;6.63;;;3.10;;
51746;SDS011;37825;40.088;18.302;2022-07-06T10:13:11;8.82;;;2.47;;
51746;SDS011;37825;40.088;18.302;2022-07-06T10:15:40;5.35;;;2.63;;
51746;SDS011;37825;40.088;18.302;2022-07-06T10:26:11;7.28;;;2.70;;
51746;SDS011;37825;40.088;18.302;2022-07-06T10:28:58;6.82;;;2.92;;
51746;SDS011;37825;40.088;18.302;2022-07-06T10:31:49;9.52;;;3.60;;
51746;SDS011;37825;40.088;18.302;2022-07-06T10:34:36;7.82;;;2.88;;
51746;SDS011;37825;40.088;18.302;2022-07-06T10:37:24;6.55;;;2.42;;
51746;SDS011;37825;40.088;18.302;2022-07-06T10:40:14;4.93;;;2.22;;
51746;SDS011;37825;40.088;18.302;2022-07-06T10:43:20;12.45;;;3.35;;
51746;SDS011;37825;40.088;18.302;2022-07-06T10:48:36;8.05;;;3.53;;
51746;SDS011;37825;40.088;18.302;2022-07-06T10:51:05;4.15;;;2.55;;
51746;SDS011;37825;40.088;18.302;2022-07-06T10:53:34;8.20;;;2.55;;
51746;SDS011;37825;40.088;18.302;2022-07-06T10:56:07;9.98;;;2.78;;
51746;SDS011;37825;40.088;18.302;2022-07-06T10:58:54;6.65;;;2.25;;
51746;SDS011;37825;40.088;18.302;2022-07-06T11:01:24;5.63;;;2.58;;
51746;SDS011;37825;40.088;18.302;2022-07-06T11:06:45;4.15;;;1.25;;
51746;SDS011;37825;40.088;18.302;2022-07-06T11:09:15;5.53;;;2.00;;
51746;SDS011;37825;40.088;18.302;2022-07-06T11:11:44;5.35;;;3.20;;
51746;SDS011;37825;40.088;18.302;2022-07-06T11:14:16;5.78;;;2.20;;
51746;SDS011;37825;40.088;18.302;2022-07-06T11:19:17;8.70;;;2.80;;
51746;SDS011;37825;40.088;18.302;2022-07-06T11:21:47;7.45;;;1.90;;
51746;SDS011;37825;40.088;18.302;2022-07-06T11:26:54;10.52;;;2.50;;
51746;SDS011;37825;40.088;18.302;2022-07-06T11:29:23;7.15;;;2.03;;
51746;SDS011;37825;40.088;18.302;2022-07-06T11:31:53;3.10;;;1.63;;
51746;SDS011;37825;40.088;18.302;2022-07-06T11:34:25;5.25;;;2.45;;
51746;SDS011;37825;40.088;18.302;2022-07-06T11:36:58;5.57;;;2.00;;
51746;SDS011;37825;40.088;18.302;2022-07-06T11:39:30;5.63;;;2.25;;
51746;SDS011;37825;40.088;18.302;2022-07-06T11:41:59;7.07;;;2.22;;
51746;SDS011;37825;40.088;18.302;2022-07-06T11:44:49;6.55;;;2.70;;
51746;SDS011;37825;40.088;18.302;2022-07-06T11:47:19;4.03;;;1.75;;
51746;SDS011;37825;40.088;18.302;2022-07-06T11:49:51;3.92;;;2.20;;
51746;SDS011;37825;40.088;18.302;2022-07-06T11:52:21;6.63;;;2.30;;
51746;SDS011;37825;40.088;18.302;2022-07-06T11:57:19;5.53;;;1.80;;
51746;SDS011;37825;40.088;18.302;2022-07-06T11:59:49;5.05;;;2.13;;
51746;SDS011;37825;40.088;18.302;2022-07-06T12:02:20;4.75;;;2.75;;
51746;SDS011;37825;40.088;18.302;2022-07-06T12:04:49;2.60;;;1.40;;
51746;SDS011;37825;40.088;18.302;2022-07-06T12:07:19;5.55;;;1.45;;
51746;SDS011;37825;40.088;18.302;2022-07-06T12:09:48;7.22;;;2.35;;
51746;SDS011;37825;40.088;18.302;2022-07-06T12:12:18;7.32;;;2.28;;
51746;SDS011;37825;40.088;18.302;2022-07-06T12:14:47;7.90;;;2.47;;
51746;SDS011;37825;40.088;18.302;2022-07-06T12:17:21;2.30;;;1.17;;
51746;SDS011;37825;40.088;18.302;2022-07-06T12:19:53;3.92;;;1.95;;
51746;SDS011;37825;40.088;18.302;2022-07-06T12:22:29;5.75;;;1.60;;
51746;SDS011;37825;40.088;18.302;2022-07-06T12:25:00;5.97;;;2.22;;
51746;SDS011;37825;40.088;18.302;2022-07-06T12:27:33;3.67;;;1.48;;
51746;SDS011;37825;40.088;18.302;2022-07-06T12:30:07;7.15;;;2.22;;
51746;SDS011;37825;40.088;18.302;2022-07-06T12:32:42;3.72;;;1.65;;
51746;SDS011;37825;40.088;18.302;2022-07-06T12:35:10;7.57;;;1.90;;
51746;SDS011;37825;40.088;18.302;2022-07-06T12:37:54;7.53;;;2.20;;
51746;SDS011;37825;40.088;18.302;2022-07-06T12:40:25;5.47;;;1.73;;
51746;SDS011;37825;40.088;18.302;2022-07-06T12:42:55;5.32;;;2.95;;
51746;SDS011;37825;40.088;18.302;2022-07-06T12:45:27;3.72;;;1.73;;
51746;SDS011;37825;40.088;18.302;2022-07-06T12:48:06;3.38;;;1.38;;
51746;SDS011;37825;40.088;18.302;2022-07-06T12:53:22;7.53;;;1.50;;
51746;SDS011;37825;40.088;18.302;2022-07-06T12:56:11;3.38;;;1.48;;
51746;SDS011;37825;40.088;18.302;2022-07-06T12:58:59;5.82;;;2.55;;
51746;SDS011;37825;40.088;18.302;2022-07-06T13:01:29;4.40;;;1.70;;
51746;SDS011;37825;40.088;18.302;2022-07-06T13:03:59;6.22;;;1.77;;
51746;SDS011;37825;40.088;18.302;2022-07-06T13:06:33;2.75;;;1.05;;
51746;SDS011;37825;40.088;18.302;2022-07-06T13:09:08;6.25;;;2.08;;
51746;SDS011;37825;40.088;18.302;2022-07-06T13:11:40;9.45;;;2.13;;
51746;SDS011;37825;40.088;18.302;2022-07-06T13:14:11;5.63;;;1.83;;
51746;SDS011;37825;40.088;18.302;2022-07-06T13:16:40;5.93;;;1.30;;
51746;SDS011;37825;40.088;18.302;2022-07-06T13:19:09;5.55;;;1.80;;
51746;SDS011;37825;40.088;18.302;2022-07-06T13:21:40;5.65;;;2.13;;
51746;SDS011;37825;40.088;18.302;2022-07-06T13:24:09;4.90;;;1.40;;
51746;SDS011;37825;40.088;18.302;2022-07-06T13:26:39;5.07;;;1.30;;
51746;SDS011;37825;40.088;18.302;2022-07-06T13:29:10;3.65;;;1.80;;
51746;SDS011;37825;40.088;18.302;2022-07-06T13:31:44;7.32;;;2.35;;
51746;SDS011;37825;40.088;18.302;2022-07-06T13:34:16;6.80;;;1.83;;
51746;SDS011;37825;40.088;18.302;2022-07-06T13:36:50;5.88;;;1.40;;
51746;SDS011;37825;40.088;18.302;2022-07-06T13:39:19;5.80;;;1.42;;
51746;SDS011;37825;40.088;18.302;2022-07-06T13:41:49;4.85;;;1.40;;
51746;SDS011;37825;40.088;18.302;2022-07-06T13:44:18;5.70;;;1.58;;
51746;SDS011;37825;40.088;18.302;2022-07-06T13:46:47;3.58;;;1.10;;
51746;SDS011;37825;40.088;18.302;2022-07-06T13:49:16;7.60;;;1.42;;
51746;SDS011;37825;40.088;18.302;2022-07-06T13:51:47;6.72;;;1.58;;
51746;SDS011;37825;40.088;18.302;2022-07-06T13:54:16;5.50;;;1.33;;
51746;SDS011;37825;40.088;18.302;2022-07-06T13:56:46;5.85;;;1.55;;
51746;SDS011;37825;40.088;18.302;2022-07-06T13:59:20;4.75;;;1.42;;
51746;SDS011;37825;40.088;18.302;2022-07-06T14:01:49;2.45;;;1.30;;
51746;SDS011;37825;40.088;18.302;2022-07-06T14:04:19;2.85;;;0.90;;
51746;SDS011;37825;40.088;18.302;2022-07-06T14:06:49;6.82;;;1.50;;
51746;SDS011;37825;40.088;18.302;2022-07-06T14:09:17;6.40;;;1.17;;
51746;SDS011;37825;40.088;18.302;2022-07-06T14:11:47;3.22;;;0.77;;
51746;SDS011;37825;40.088;18.302;2022-07-06T14:14:16;3.20;;;1.20;;
51746;SDS011;37825;40.088;18.302;2022-07-06T14:16:44;7.00;;;1.70;;
51746;SDS011;37825;40.088;18.302;2022-07-06T14:22:14;3.13;;;1.02;;
51746;SDS011;37825;40.088;18.302;2022-07-06T14:24:46;5.05;;;0.43;;
51746;SDS011;37825;40.088;18.302;2022-07-06T14:27:16;3.80;;;1.13;;
51746;SDS011;37825;40.088;18.302;2022-07-06T14:29:45;3.70;;;0.97;;
51746;SDS011;37825;40.088;18.302;2022-07-06T14:32:14;4.80;;;1.52;;
51746;SDS011;37825;40.088;18.302;2022-07-06T14:34:45;10.45;;;1.27;;
51746;SDS011;37825;40.088;18.302;2022-07-06T14:37:13;4.32;;;1.20;;
51746;SDS011;37825;40.088;18.302;2022-07-06T14:39:46;3.22;;;0.98;;
51746;SDS011;37825;40.088;18.302;2022-07-06T14:42:16;7.38;;;1.30;;
51746;SDS011;37825;40.088;18.302;2022-07-06T14:44:45;4.43;;;0.93;;
51746;SDS011;37825;40.088;18.302;2022-07-06T14:47:13;3.00;;;1.00;;
51746;SDS011;37825;40.088;18.302;2022-07-06T14:49:44;4.38;;;1.58;;
51746;SDS011;37825;40.088;18.302;2022-07-06T14:52:13;1.80;;;1.10;;
51746;SDS011;37825;40.088;18.302;2022-07-06T14:57:11;7.03;;;1.30;;
51746;SDS011;37825;40.088;18.302;2022-07-06T14:59:42;6.20;;;0.80;;
51746;SDS011;37825;40.088;18.302;2022-07-06T15:02:15;2.55;;;1.00;;
51746;SDS011;37825;40.088;18.302;2022-07-06T15:04:43;5.65;;;0.80;;
51746;SDS011;37825;40.088;18.302;2022-07-06T15:07:20;3.50;;;1.17;;
51746;SDS011;37825;40.088;18.302;2022-07-06T15:09:49;3.30;;;1.38;;
51746;SDS011;37825;40.088;18.302;2022-07-06T15:12:18;5.60;;;1.33;;
51746;SDS011;37825;40.088;18.302;2022-07-06T15:14:49;4.75;;;1.42;;
51746;SDS011;37825;40.088;18.302;2022-07-06T15:17:18;2.95;;;0.60;;
51746;SDS011;37825;40.088;18.302;2022-07-06T15:19:49;6.22;;;1.63;;
51746;SDS011;37825;40.088;18.302;2022-07-06T15:22:20;3.60;;;1.02;;
51746;SDS011;37825;40.088;18.302;2022-07-06T15:24:50;3.63;;;0.90;;
51746;SDS011;37825;40.088;18.302;2022-07-06T15:27:19;4.20;;;1.23;;